sensor_id;sensor_type;location;lat;lon;timestamp;pressure;altitude;pressure_sealevel;temperature;humidity
48652;BME280;34442;52.362;-1.302;2023-02-10T00:02:23;102277.13;;;2.78;100.00
48652;BME280;34442;52.362;-1.302;2023-02-10T00:04:49;102277.00;;;2.79;100.00
48652;BME280;34442;52.362;-1.302;2023-02-10T00:07:17;102273.63;;;2.77;100.00
48652;BME280;34442;52.362;-1.302;2023-02-10T00:09:42;102273.63;;;2.77;100.00
48652;BME280;34442;52.362;-1.302;2023-02-10T00:12:08;102271.16;;;2.74;100.00
48652;BME280;34442;52.362;-1.302;2023-02-10T00:14:35;102265.22;;;2.70;100.00
48652;BME280;34442;52.362;-1.302;2023-02-10T00:17:00;102266.53;;;2.65;100.00
48652;BME280;34442;52.362;-1.302;2023-02-10T00:19:27;102261.84;;;2.68;100.00
48652;BME280;34442;52.362;-1.302;2023-02-10T00:21:53;102262.47;;;2.72;100.00
48652;BME280;34442;52.362;-1.302;2023-02-10T00:24:19;102257.16;;;2.72;100.00
48652;BME280;34442;52.362;-1.302;2023-02-10T00:26:45;102262.47;;;2.72;100.00
48652;BME280;34442;52.362;-1.302;2023-02-10T00:29:10;102257.38;;;2.69;100.00
48652;BME280;34442;52.362;-1.302;2023-02-10T00:31:36;102262.19;;;2.64;100.00
48652;BME280;34442;52.362;-1.302;2023-02-10T00:34:01;102265.88;;;2.61;100.00
48652;BME280;34442;52.362;-1.302;2023-02-10T00:36:27;102264.41;;;2.57;100.00
48652;BME280;34442;52.362;-1.302;2023-02-10T00:38:52;102256.31;;;2.59;100.00
48652;BME280;34442;52.362;-1.302;2023-02-10T00:41:20;102256.66;;;2.54;100.00
48652;BME280;34442;52.362;-1.302;2023-02-10T00:43:46;102242.53;;;2.54;100.00
48652;BME280;34442;52.362;-1.302;2023-02-10T00:46:12;102241.69;;;2.53;100.00
48652;BME280;34442;52.362;-1.302;2023-02-10T00:48:38;102244.34;;;2.53;100.00
48652;BME280;34442;52.362;-1.302;2023-02-10T00:51:04;102247.97;;;2.52;100.00
48652;BME280;34442;52.362;-1.302;2023-02-10T00:53:30;102247.09;;;2.52;100.00
48652;BME280;34442;52.362;-1.302;2023-02-10T00:55:56;102253.25;;;2.52;100.00
48652;BME280;34442;52.362;-1.302;2023-02-10T00:58:21;102252.31;;;2.53;100.00
48652;BME280;34442;52.362;-1.302;2023-02-10T01:00:47;102249.13;;;2.48;100.00
48652;BME280;34442;52.362;-1.302;2023-02-10T01:03:13;102241.88;;;2.50;100.00
48652;BME280;34442;52.362;-1.302;2023-02-10T01:05:39;102249.53;;;2.55;100.00
48652;BME280;34442;52.362;-1.302;2023-02-10T01:08:04;102242.72;;;2.51;100.00
48652;BME280;34442;52.362;-1.302;2023-02-10T01:10:32;102252.63;;;2.48;100.00
48652;BME280;34442;52.362;-1.302;2023-02-10T01:13:04;102254.44;;;2.22;100.00
48652;BME280;34442;52.362;-1.302;2023-02-10T01:15:30;102251.47;;;2.27;100.00
48652;BME280;34442;52.362;-1.302;2023-02-10T01:17:56;102257.63;;;2.40;100.00
48652;BME280;34442;52.362;-1.302;2023-02-10T01:20:22;102264.81;;;2.38;100.00
48652;BME280;34442;52.362;-1.302;2023-02-10T01:22:47;102251.56;;;2.38;100.00
48652;BME280;34442;52.362;-1.302;2023-02-10T01:25:12;102263.34;;;2.34;100.00
48652;BME280;34442;52.362;-1.302;2023-02-10T01:27:38;102259.00;;;2.33;100.00
48652;BME280;34442;52.362;-1.302;2023-02-10T01:30:04;102265.47;;;2.29;100.00
48652;BME280;34442;52.362;-1.302;2023-02-10T01:32:30;102272.72;;;2.27;100.00
48652;BME280;34442;52.362;-1.302;2023-02-10T01:34:55;102272.72;;;2.27;100.00
48652;BME280;34442;52.362;-1.302;2023-02-10T01:37:21;102280.03;;;2.23;100.00
48652;BME280;34442;52.362;-1.302;2023-02-10T01:39:46;102265.78;;;2.12;100.00
48652;BME280;34442;52.362;-1.302;2023-02-10T01:42:14;102268.53;;;1.97;100.00
48652;BME280;34442;52.362;-1.302;2023-02-10T01:47:05;102264.69;;;2.02;100.00
48652;BME280;34442;52.362;-1.302;2023-02-10T01:49:36;102279.09;;;1.85;100.00
48652;BME280;34442;52.362;-1.302;2023-02-10T01:52:12;102272.25;;;2.08;100.00
48652;BME280;34442;52.362;-1.302;2023-02-10T01:57:08;102273.75;;;1.99;100.00
48652;BME280;34442;52.362;-1.302;2023-02-10T01:59:35;102276.38;;;1.86;100.00
48652;BME280;34442;52.362;-1.302;2023-02-10T02:02:01;102280.38;;;1.79;100.00
48652;BME280;34442;52.362;-1.302;2023-02-10T02:04:35;102278.56;;;1.80;100.00
48652;BME280;34442;52.362;-1.302;2023-02-10T02:07:03;102271.78;;;1.76;100.00
48652;BME280;34442;52.362;-1.302;2023-02-10T02:09:28;102265.03;;;1.97;100.00
48652;BME280;34442;52.362;-1.302;2023-02-10T02:14:32;102260.34;;;2.01;100.00
48652;BME280;34442;52.362;-1.302;2023-02-10T02:17:23;102261.31;;;1.99;100.00
48652;BME280;34442;52.362;-1.302;2023-02-10T02:20:46;102268.31;;;2.01;100.00
48652;BME280;34442;52.362;-1.302;2023-02-10T02:29:44;102253.56;;;1.96;100.00
48652;BME280;34442;52.362;-1.302;2023-02-10T02:37:12;102243.59;;;2.00;100.00
48652;BME280;34442;52.362;-1.302;2023-02-10T02:39:41;102241.91;;;1.99;100.00
48652;BME280;34442;52.362;-1.302;2023-02-10T02:42:27;102238.41;;;1.98;100.00
48652;BME280;34442;52.362;-1.302;2023-02-10T02:44:57;102233.63;;;2.04;100.00
48652;BME280;34442;52.362;-1.302;2023-02-10T02:47:40;102221.00;;;2.07;100.00
48652;BME280;34442;52.362;-1.302;2023-02-10T02:50:33;102207.75;;;2.07;100.00
48652;BME280;34442;52.362;-1.302;2023-02-10T02:53:09;102194.91;;;2.01;100.00
48652;BME280;34442;52.362;-1.302;2023-02-10T02:58:23;102203.50;;;2.05;100.00
48652;BME280;34442;52.362;-1.302;2023-02-10T03:00:53;102196.38;;;2.05;100.00
48652;BME280;34442;52.362;-1.302;2023-02-10T03:03:21;102208.81;;;2.05;100.00
48652;BME280;34442;52.362;-1.302;2023-02-10T03:05:46;102207.84;;;2.06;100.00
48652;BME280;34442;52.362;-1.302;2023-02-10T03:08:12;102210.19;;;2.10;100.00
48652;BME280;34442;52.362;-1.302;2023-02-10T03:10:37;102215.50;;;2.10;100.00
48652;BME280;34442;52.362;-1.302;2023-02-10T03:13:02;102213.69;;;2.11;100.00
48652;BME280;34442;52.362;-1.302;2023-02-10T03:15:28;102201.06;;;2.14;100.00
48652;BME280;34442;52.362;-1.302;2023-02-10T03:17:55;102191.50;;;2.12;100.00
48652;BME280;34442;52.362;-1.302;2023-02-10T03:20:21;102187.16;;;2.11;100.00
48652;BME280;34442;52.362;-1.302;2023-02-10T03:22:46;102193.31;;;2.11;100.00
48652;BME280;34442;52.362;-1.302;2023-02-10T03:25:11;102200.13;;;2.15;100.00
48652;BME280;34442;52.362;-1.302;2023-02-10T03:27:37;102193.00;;;2.16;100.00
48652;BME280;34442;52.362;-1.302;2023-02-10T03:30:03;102170.59;;;2.20;100.00
48652;BME280;34442;52.362;-1.302;2023-02-10T03:32:28;102176.03;;;2.18;100.00
48652;BME280;34442;52.362;-1.302;2023-02-10T03:34:53;102174.94;;;2.21;100.00
48652;BME280;34442;52.362;-1.302;2023-02-10T03:37:19;102179.28;;;2.22;100.00
48652;BME280;34442;52.362;-1.302;2023-02-10T03:39:45;102165.50;;;2.17;100.00
48652;BME280;34442;52.362;-1.302;2023-02-10T03:42:11;102163.81;;;2.16;100.00
48652;BME280;34442;52.362;-1.302;2023-02-10T03:44:37;102158.72;;;2.13;100.00
48652;BME280;34442;52.362;-1.302;2023-02-10T03:47:02;102155.22;;;2.12;100.00
48652;BME280;34442;52.362;-1.302;2023-02-10T03:49:28;102159.69;;;2.12;100.00
48652;BME280;34442;52.362;-1.302;2023-02-10T03:51:53;102165.94;;;2.11;100.00
48652;BME280;34442;52.362;-1.302;2023-02-10T03:54:18;102161.50;;;2.11;100.00
48652;BME280;34442;52.362;-1.302;2023-02-10T03:56:44;102161.56;;;2.10;100.00
48652;BME280;34442;52.362;-1.302;2023-02-10T03:59:09;102160.00;;;2.07;100.00
48652;BME280;34442;52.362;-1.302;2023-02-10T04:01:34;102161.06;;;2.05;100.00
48652;BME280;34442;52.362;-1.302;2023-02-10T04:04:00;102159.56;;;2.01;100.00
48652;BME280;34442;52.362;-1.302;2023-02-10T04:06:25;102163.50;;;1.95;100.00
48652;BME280;34442;52.362;-1.302;2023-02-10T04:08:51;102161.50;;;1.98;100.00
48652;BME280;34442;52.362;-1.302;2023-02-10T04:11:16;102157.13;;;1.97;100.00
48652;BME280;34442;52.362;-1.302;2023-02-10T04:13:42;102169.47;;;1.98;100.00
48652;BME280;34442;52.362;-1.302;2023-02-10T04:16:13;102168.69;;;1.96;100.00
48652;BME280;34442;52.362;-1.302;2023-02-10T04:18:38;102168.94;;;1.93;100.00
48652;BME280;34442;52.362;-1.302;2023-02-10T04:21:05;102174.13;;;1.95;100.00
48652;BME280;34442;52.362;-1.302;2023-02-10T04:23:31;102168.06;;;1.93;100.00
48652;BME280;34442;52.362;-1.302;2023-02-10T04:25:57;102160.22;;;1.91;100.00
48652;BME280;34442;52.362;-1.302;2023-02-10T04:28:22;102161.81;;;1.94;100.00
48652;BME280;34442;52.362;-1.302;2023-02-10T04:30:55;102168.81;;;1.95;100.00
48652;BME280;34442;52.362;-1.302;2023-02-10T04:33:21;102174.13;;;1.95;100.00
48652;BME280;34442;52.362;-1.302;2023-02-10T04:35:51;102168.94;;;1.93;100.00
48652;BME280;34442;52.362;-1.302;2023-02-10T04:38:17;102171.78;;;1.90;100.00
48652;BME280;34442;52.362;-1.302;2023-02-10T04:40:42;102165.84;;;1.87;100.00
48652;BME280;34442;52.362;-1.302;2023-02-10T04:43:09;102167.00;;;1.83;100.00
48652;BME280;34442;52.362;-1.302;2023-02-10T04:45:35;102165.22;;;1.83;100.00
48652;BME280;34442;52.362;-1.302;2023-02-10T04:48:01;102163.41;;;1.84;100.00
48652;BME280;34442;52.362;-1.302;2023-02-10T04:50:26;102161.81;;;1.81;100.00
48652;BME280;34442;52.362;-1.302;2023-02-10T04:52:51;102167.53;;;1.88;100.00
48652;BME280;34442;52.362;-1.302;2023-02-10T04:55:17;102167.44;;;1.89;100.00
48652;BME280;34442;52.362;-1.302;2023-02-10T04:57:42;102152.47;;;1.88;100.00
48652;BME280;34442;52.362;-1.302;2023-02-10T05:00:08;102158.75;;;1.87;100.00
48652;BME280;34442;52.362;-1.302;2023-02-10T05:02:33;102160.34;;;1.90;100.00
48652;BME280;34442;52.362;-1.302;2023-02-10T05:04:59;102158.31;;;1.93;100.00
48652;BME280;34442;52.362;-1.302;2023-02-10T05:07:25;102156.72;;;1.91;100.00
48652;BME280;34442;52.362;-1.302;2023-02-10T05:09:50;102163.63;;;1.93;100.00
48652;BME280;34442;52.362;-1.302;2023-02-10T05:12:15;102162.56;;;1.96;100.00
48652;BME280;34442;52.362;-1.302;2023-02-10T05:14:41;102157.44;;;1.93;100.00
48652;BME280;34442;52.362;-1.302;2023-02-10T05:17:06;102155.88;;;1.90;100.00
48652;BME280;34442;52.362;-1.302;2023-02-10T05:19:32;102146.13;;;1.91;100.00
48652;BME280;34442;52.362;-1.302;2023-02-10T05:21:57;102155.25;;;1.87;100.00
48652;BME280;34442;52.362;-1.302;2023-02-10T05:24:22;102147.28;;;1.87;100.00
48652;BME280;34442;52.362;-1.302;2023-02-10T05:26:48;102145.81;;;1.83;100.00
48652;BME280;34442;52.362;-1.302;2023-02-10T05:29:14;102158.09;;;1.84;100.00
48652;BME280;34442;52.362;-1.302;2023-02-10T05:31:39;102153.88;;;1.81;100.00
48652;BME280;34442;52.362;-1.302;2023-02-10T05:34:05;102152.28;;;1.79;100.00
48652;BME280;34442;52.362;-1.302;2023-02-10T05:36:30;102162.56;;;1.83;100.00
48652;BME280;34442;52.362;-1.302;2023-02-10T05:38:55;102166.16;;;1.82;100.00
48652;BME280;34442;52.362;-1.302;2023-02-10T05:41:39;102169.47;;;1.86;100.00
48652;BME280;34442;52.362;-1.302;2023-02-10T05:44:04;102168.63;;;1.85;100.00
48652;BME280;34442;52.362;-1.302;2023-02-10T05:46:30;102164.56;;;1.80;100.00
48652;BME280;34442;52.362;-1.302;2023-02-10T05:48:55;102168.06;;;1.80;100.00
48652;BME280;34442;52.362;-1.302;2023-02-10T05:51:20;102173.59;;;1.77;100.00
48652;BME280;34442;52.362;-1.302;2023-02-10T05:53:46;102166.69;;;1.74;100.00
48652;BME280;34442;52.362;-1.302;2023-02-10T05:56:11;102164.03;;;1.74;100.00
48652;BME280;34442;52.362;-1.302;2023-02-10T05:58:37;102166.03;;;1.71;100.00
48652;BME280;34442;52.362;-1.302;2023-02-10T06:01:06;102158.84;;;1.73;100.00
48652;BME280;34442;52.362;-1.302;2023-02-10T06:03:32;102160.75;;;1.71;100.00
48652;BME280;34442;52.362;-1.302;2023-02-10T06:05:57;102157.03;;;1.73;100.00
48652;BME280;34442;52.362;-1.302;2023-02-10T06:08:23;102157.25;;;1.70;100.00
48652;BME280;34442;52.362;-1.302;2023-02-10T06:10:48;102165.19;;;1.70;100.00
48652;BME280;34442;52.362;-1.302;2023-02-10T06:13:14;102166.03;;;1.71;100.00
48652;BME280;34442;52.362;-1.302;2023-02-10T06:15:39;102160.75;;;1.71;100.00
48652;BME280;34442;52.362;-1.302;2023-02-10T06:18:04;102165.94;;;1.72;100.00
48652;BME280;34442;52.362;-1.302;2023-02-10T06:20:30;102171.16;;;1.74;100.00
48652;BME280;34442;52.362;-1.302;2023-02-10T06:22:55;102165.72;;;1.76;100.00
48652;BME280;34442;52.362;-1.302;2023-02-10T06:25:21;102163.72;;;1.79;100.00
48652;BME280;34442;52.362;-1.302;2023-02-10T06:27:46;102162.88;;;1.79;100.00
48652;BME280;34442;52.362;-1.302;2023-02-10T06:30:12;102159.38;;;1.78;100.00
48652;BME280;34442;52.362;-1.302;2023-02-10T06:32:37;102166.56;;;1.76;100.00
48652;BME280;34442;52.362;-1.302;2023-02-10T06:35:03;102155.44;;;1.71;100.00
48652;BME280;34442;52.362;-1.302;2023-02-10T06:37:28;102159.06;;;1.70;100.00
48652;BME280;34442;52.362;-1.302;2023-02-10T06:39:54;102161.72;;;1.70;100.00
48652;BME280;34442;52.362;-1.302;2023-02-10T06:42:20;102152.78;;;1.71;100.00
48652;BME280;34442;52.362;-1.302;2023-02-10T06:44:45;102153.63;;;1.71;100.00
48652;BME280;34442;52.362;-1.302;2023-02-10T06:47:11;102157.03;;;1.73;100.00
48652;BME280;34442;52.362;-1.302;2023-02-10T06:49:36;102141.13;;;1.73;100.00
48652;BME280;34442;52.362;-1.302;2023-02-10T06:52:02;102145.38;;;1.76;100.00
48652;BME280;34442;52.362;-1.302;2023-02-10T06:54:28;102154.81;;;1.80;100.00
48652;BME280;34442;52.362;-1.302;2023-02-10T06:56:53;102156.28;;;1.84;100.00
48652;BME280;34442;52.362;-1.302;2023-02-10T06:59:19;102162.34;;;1.86;100.00
48652;BME280;34442;52.362;-1.302;2023-02-10T07:01:45;102158.75;;;1.87;100.00
48652;BME280;34442;52.362;-1.302;2023-02-10T07:04:11;102160.53;;;1.87;100.00
48652;BME280;34442;52.362;-1.302;2023-02-10T07:06:37;102168.69;;;1.84;100.00
48652;BME280;34442;52.362;-1.302;2023-02-10T07:09:02;102161.59;;;1.84;100.00
48652;BME280;34442;52.362;-1.302;2023-02-10T07:11:29;102157.25;;;1.83;100.00
48652;BME280;34442;52.362;-1.302;2023-02-10T07:13:56;102160.22;;;1.79;100.00
48652;BME280;34442;52.362;-1.302;2023-02-10T07:16:21;102156.72;;;1.78;100.00
48652;BME280;34442;52.362;-1.302;2023-02-10T07:18:47;102160.88;;;1.82;100.00
48652;BME280;34442;52.362;-1.302;2023-02-10T07:21:12;102165.53;;;1.79;100.00
48652;BME280;34442;52.362;-1.302;2023-02-10T07:23:39;102170.94;;;1.77;100.00
48652;BME280;34442;52.362;-1.302;2023-02-10T07:26:04;102173.16;;;1.83;100.00
48652;BME280;34442;52.362;-1.302;2023-02-10T07:28:30;102183.66;;;1.72;100.00
48652;BME280;34442;52.362;-1.302;2023-02-10T07:30:55;102176.00;;;1.67;100.00
48652;BME280;34442;52.362;-1.302;2023-02-10T07:33:21;102187.56;;;1.66;100.00
48652;BME280;34442;52.362;-1.302;2023-02-10T07:35:46;102200.72;;;1.68;100.00
48652;BME280;34442;52.362;-1.302;2023-02-10T07:38:12;102198.16;;;1.66;100.00
48652;BME280;34442;52.362;-1.302;2023-02-10T07:40:37;102199.97;;;1.66;100.00
48652;BME280;34442;52.362;-1.302;2023-02-10T07:43:03;102197.31;;;1.66;100.00
48652;BME280;34442;52.362;-1.302;2023-02-10T07:45:28;102201.03;;;1.63;100.00
48652;BME280;34442;52.362;-1.302;2023-02-10T07:47:57;102202.81;;;1.63;100.00
48652;BME280;34442;52.362;-1.302;2023-02-10T07:50:23;102200.38;;;1.60;100.00
48652;BME280;34442;52.362;-1.302;2023-02-10T07:52:49;102201.22;;;1.60;100.00
48652;BME280;34442;52.362;-1.302;2023-02-10T07:55:15;102210.13;;;1.59;100.00
48652;BME280;34442;52.362;-1.302;2023-02-10T07:57:40;102203.66;;;1.63;100.00
48652;BME280;34442;52.362;-1.302;2023-02-10T08:00:08;102196.56;;;1.64;100.00
48652;BME280;34442;52.362;-1.302;2023-02-10T08:02:33;102201.47;;;1.70;100.00
48652;BME280;34442;52.362;-1.302;2023-02-10T08:04:59;102185.97;;;1.77;100.00
48652;BME280;34442;52.362;-1.302;2023-02-10T08:07:25;102191.19;;;1.78;100.00
48652;BME280;34442;52.362;-1.302;2023-02-10T08:09:50;102186.94;;;1.76;100.00
48652;BME280;34442;52.362;-1.302;2023-02-10T08:12:15;102190.56;;;1.74;100.00
48652;BME280;34442;52.362;-1.302;2023-02-10T08:14:41;102197.47;;;1.77;100.00
48652;BME280;34442;52.362;-1.302;2023-02-10T08:17:06;102198.81;;;1.83;100.00
48652;BME280;34442;52.362;-1.302;2023-02-10T08:19:31;102181.97;;;1.84;100.00
48652;BME280;34442;52.362;-1.302;2023-02-10T08:21:57;102202.84;;;1.88;100.00
48652;BME280;34442;52.362;-1.302;2023-02-10T08:24:22;102201.50;;;1.95;100.00
48652;BME280;34442;52.362;-1.302;2023-02-10T08:26:48;102203.09;;;1.98;100.00
48652;BME280;34442;52.362;-1.302;2023-02-10T08:29:13;102207.75;;;2.07;100.00
48652;BME280;34442;52.362;-1.302;2023-02-10T08:31:39;102208.91;;;2.16;100.00
48652;BME280;34442;52.362;-1.302;2023-02-10T08:34:05;102208.38;;;2.23;100.00
48652;BME280;34442;52.362;-1.302;2023-02-10T08:36:31;102218.22;;;2.34;100.00
48652;BME280;34442;52.362;-1.302;2023-02-10T08:38:57;102220.97;;;2.45;100.00
48652;BME280;34442;52.362;-1.302;2023-02-10T08:41:22;102205.81;;;2.47;100.00
48652;BME280;34442;52.362;-1.302;2023-02-10T08:43:48;102194.75;;;2.54;100.00
48652;BME280;34442;52.362;-1.302;2023-02-10T08:46:14;102204.47;;;2.66;100.00
48652;BME280;34442;52.362;-1.302;2023-02-10T08:48:39;102209.69;;;2.67;100.00
48652;BME280;34442;52.362;-1.302;2023-02-10T08:51:09;102205.00;;;2.71;100.00
48652;BME280;34442;52.362;-1.302;2023-02-10T08:53:35;102201.91;;;2.77;100.00
48652;BME280;34442;52.362;-1.302;2023-02-10T08:56:08;102208.16;;;2.89;100.00
48652;BME280;34442;52.362;-1.302;2023-02-10T08:58:34;102210.69;;;2.90;100.00
48652;BME280;34442;52.362;-1.302;2023-02-10T09:01:00;102219.41;;;2.92;100.00
48652;BME280;34442;52.362;-1.302;2023-02-10T09:03:26;102217.47;;;2.94;100.00
48652;BME280;34442;52.362;-1.302;2023-02-10T09:05:52;102211.44;;;2.92;100.00
48652;BME280;34442;52.362;-1.302;2023-02-10T09:08:18;102222.66;;;2.96;100.00
48652;BME280;34442;52.362;-1.302;2023-02-10T09:10:45;102222.34;;;3.01;100.00
48652;BME280;34442;52.362;-1.302;2023-02-10T09:13:12;102222.09;;;3.04;100.00
48652;BME280;34442;52.362;-1.302;2023-02-10T09:15:39;102220.00;;;3.09;100.00
48652;BME280;34442;52.362;-1.302;2023-02-10T09:18:06;102223.25;;;3.12;100.00
48652;BME280;34442;52.362;-1.302;2023-02-10T09:20:32;102222.59;;;3.21;100.00
48652;BME280;34442;52.362;-1.302;2023-02-10T09:22:57;102226.59;;;3.27;100.00
48652;BME280;34442;52.362;-1.302;2023-02-10T09:25:23;102224.34;;;3.34;100.00
48652;BME280;34442;52.362;-1.302;2023-02-10T09:27:51;102215.88;;;3.40;100.00
48652;BME280;34442;52.362;-1.302;2023-02-10T09:30:17;102216.97;;;3.37;100.00
48652;BME280;34442;52.362;-1.302;2023-02-10T09:32:42;102219.41;;;3.40;100.00
48652;BME280;34442;52.362;-1.302;2023-02-10T09:35:08;102225.47;;;3.42;100.00
48652;BME280;34442;52.362;-1.302;2023-02-10T09:37:33;102210.97;;;3.46;100.00
48652;BME280;34442;52.362;-1.302;2023-02-10T09:39:59;102210.63;;;3.51;100.00
48652;BME280;34442;52.362;-1.302;2023-02-10T09:45:26;102202.53;;;3.53;100.00
48652;BME280;34442;52.362;-1.302;2023-02-10T09:50:55;102202.31;;;3.56;100.00
48652;BME280;34442;52.362;-1.302;2023-02-10T09:53:27;102197.09;;;3.54;100.00
48652;BME280;34442;52.362;-1.302;2023-02-10T09:55:58;102193.34;;;3.57;100.00
48652;BME280;34442;52.362;-1.302;2023-02-10T09:58:39;102200.03;;;3.62;100.00
48652;BME280;34442;52.362;-1.302;2023-02-10T10:01:13;102200.63;;;3.66;100.00
48652;BME280;34442;52.362;-1.302;2023-02-10T10:03:44;102189.53;;;3.72;100.00
48652;BME280;34442;52.362;-1.302;2023-02-10T10:06:28;102180.97;;;3.80;100.00
48652;BME280;34442;52.362;-1.302;2023-02-10T10:13:58;102179.66;;;3.96;100.00
48652;BME280;34442;52.362;-1.302;2023-02-10T10:19:26;102188.50;;;4.08;100.00
48652;BME280;34442;52.362;-1.302;2023-02-10T10:24:28;102182.81;;;4.13;100.00
48652;BME280;34442;52.362;-1.302;2023-02-10T10:27:20;102173.88;;;4.14;100.00
48652;BME280;34442;52.362;-1.302;2023-02-10T10:32:18;102177.28;;;4.16;100.00
48652;BME280;34442;52.362;-1.302;2023-02-10T10:34:52;102181.50;;;4.18;100.00
48652;BME280;34442;52.362;-1.302;2023-02-10T10:37:21;102177.63;;;4.22;100.00
48652;BME280;34442;52.362;-1.302;2023-02-10T10:40:04;102184.16;;;4.30;100.00
48652;BME280;34442;52.362;-1.302;2023-02-10T10:42:46;102186.94;;;4.39;100.00
48652;BME280;34442;52.362;-1.302;2023-02-10T10:45:20;102192.50;;;4.47;100.00
48652;BME280;34442;52.362;-1.302;2023-02-10T10:47:56;102175.81;;;4.57;100.00
48652;BME280;34442;52.362;-1.302;2023-02-10T10:50:24;102187.53;;;4.54;100.00
48652;BME280;34442;52.362;-1.302;2023-02-10T10:52:52;102174.22;;;4.54;100.00
48652;BME280;34442;52.362;-1.302;2023-02-10T10:55:22;102179.56;;;4.54;100.00
48652;BME280;34442;52.362;-1.302;2023-02-10T10:57:51;102181.72;;;4.60;100.00
48652;BME280;34442;52.362;-1.302;2023-02-10T11:00:27;102189.47;;;4.63;100.00
48652;BME280;34442;52.362;-1.302;2023-02-10T11:03:04;102183.75;;;4.68;100.00
48652;BME280;34442;52.362;-1.302;2023-02-10T11:05:33;102188.84;;;4.71;100.00
48652;BME280;34442;52.362;-1.302;2023-02-10T11:08:00;102181.69;;;4.83;100.00
48652;BME280;34442;52.362;-1.302;2023-02-10T11:10:46;102185.41;;;4.91;100.00
48652;BME280;34442;52.362;-1.302;2023-02-10T11:13:23;102185.03;;;4.96;100.00
48652;BME280;34442;52.362;-1.302;2023-02-10T11:15:59;102185.50;;;5.01;100.00
48652;BME280;34442;52.362;-1.302;2023-02-10T11:18:26;102193.34;;;5.14;100.00
48652;BME280;34442;52.362;-1.302;2023-02-10T11:20:56;102183.75;;;5.22;100.00
48652;BME280;34442;52.362;-1.302;2023-02-10T11:23:22;102183.84;;;5.21;100.00
48652;BME280;34442;52.362;-1.302;2023-02-10T11:26:00;102167.47;;;5.26;100.00
48652;BME280;34442;52.362;-1.302;2023-02-10T11:28:28;102167.81;;;5.32;100.00
48652;BME280;34442;52.362;-1.302;2023-02-10T11:30:58;102174.47;;;5.38;100.00
48652;BME280;34442;52.362;-1.302;2023-02-10T11:33:29;102166.69;;;5.35;100.00
48652;BME280;34442;52.362;-1.302;2023-02-10T11:36:03;102163.53;;;5.41;100.00
48652;BME280;34442;52.362;-1.302;2023-02-10T11:38:31;102151.50;;;5.46;100.00
48652;BME280;34442;52.362;-1.302;2023-02-10T11:40:59;102159.88;;;5.42;100.00
48652;BME280;34442;52.362;-1.302;2023-02-10T11:43:36;102150.53;;;5.47;100.00
48652;BME280;34442;52.362;-1.302;2023-02-10T11:46:05;102143.59;;;5.56;100.00
48652;BME280;34442;52.362;-1.302;2023-02-10T11:48:32;102146.84;;;5.60;100.00
48652;BME280;34442;52.362;-1.302;2023-02-10T11:51:12;102141.56;;;5.69;100.00
48652;BME280;34442;52.362;-1.302;2023-02-10T11:53:39;102151.44;;;5.79;100.00
48652;BME280;34442;52.362;-1.302;2023-02-10T11:56:15;102140.94;;;5.87;100.00
48652;BME280;34442;52.362;-1.302;2023-02-10T11:59:02;102141.47;;;6.02;100.00
48652;BME280;34442;52.362;-1.302;2023-02-10T12:04:16;102150.91;;;6.06;100.00
48652;BME280;34442;52.362;-1.302;2023-02-10T12:09:41;102133.25;;;6.14;100.00
48652;BME280;34442;52.362;-1.302;2023-02-10T12:12:25;102132.13;;;6.17;100.00
48652;BME280;34442;52.362;-1.302;2023-02-10T12:26:18;102139.00;;;6.50;100.00
48652;BME280;34442;52.362;-1.302;2023-02-10T12:31:31;102125.09;;;6.56;100.00
48652;BME280;34442;52.362;-1.302;2023-02-10T12:37:29;102132.94;;;6.58;100.00
48652;BME280;34442;52.362;-1.302;2023-02-10T12:40:04;102128.44;;;6.58;100.00
48652;BME280;34442;52.362;-1.302;2023-02-10T12:42:48;102120.06;;;6.72;100.00
48652;BME280;34442;52.362;-1.302;2023-02-10T12:46:07;102107.25;;;6.76;100.00
48652;BME280;34442;52.362;-1.302;2023-02-10T12:50:53;102114.44;;;6.95;100.00
48652;BME280;34442;52.362;-1.302;2023-02-10T12:53:33;102104.47;;;6.97;100.00
48652;BME280;34442;52.362;-1.302;2023-02-10T12:56:54;102111.34;;;6.90;100.00
48652;BME280;34442;52.362;-1.302;2023-02-10T12:58:55;102112.19;;;6.90;100.00
48652;BME280;34442;52.362;-1.302;2023-02-10T13:01:26;102105.56;;;6.94;100.00
48652;BME280;34442;52.362;-1.302;2023-02-10T13:04:02;102097.13;;;6.89;100.00
48652;BME280;34442;52.362;-1.302;2023-02-10T13:06:48;102117.25;;;6.93;100.00
48652;BME280;34442;52.362;-1.302;2023-02-10T13:09:30;102100.22;;;6.94;100.00
48652;BME280;34442;52.362;-1.302;2023-02-10T13:14:26;102106.97;;;6.99;100.00
48652;BME280;34442;52.362;-1.302;2023-02-10T13:16:55;102108.97;;;6.96;100.00
48652;BME280;34442;52.362;-1.302;2023-02-10T13:22:05;102103.03;;;7.03;100.00
48652;BME280;34442;52.362;-1.302;2023-02-10T13:24:43;102111.63;;;6.96;100.00
48652;BME280;34442;52.362;-1.302;2023-02-10T13:32:50;102105.00;;;7.20;100.00
48652;BME280;34442;52.362;-1.302;2023-02-10T13:35:22;102103.03;;;7.22;100.00
48652;BME280;34442;52.362;-1.302;2023-02-10T13:37:52;102096.16;;;7.29;100.00
48652;BME280;34442;52.362;-1.302;2023-02-10T13:40:34;102088.53;;;7.34;100.00
48652;BME280;34442;52.362;-1.302;2023-02-10T13:43:25;102078.66;;;7.35;100.00
48652;BME280;34442;52.362;-1.302;2023-02-10T13:45:53;102087.81;;;7.32;100.00
48652;BME280;34442;52.362;-1.302;2023-02-10T13:48:24;102086.97;;;7.32;100.00
48652;BME280;34442;52.362;-1.302;2023-02-10T13:50:57;102086.69;;;7.35;100.00
48652;BME280;34442;52.362;-1.302;2023-02-10T13:58:57;102073.47;;;7.33;100.00
48652;BME280;34442;52.362;-1.302;2023-02-10T14:06:50;102071.75;;;7.42;100.00
48652;BME280;34442;52.362;-1.302;2023-02-10T14:11:58;102073.59;;;7.41;100.00
48652;BME280;34442;52.362;-1.302;2023-02-10T14:14:35;102071.88;;;7.40;100.00
48652;BME280;34442;52.362;-1.302;2023-02-10T14:17:20;102070.47;;;7.36;100.00
48652;BME280;34442;52.362;-1.302;2023-02-10T14:19:50;102061.34;;;7.39;100.00